Terminal Aerodrome Forecast
Issued by NWS Sioux Falls, SD

Home | Current Version | Previous Version | Graphics & Text | Print | Product List | Glossary On
Versions: 1 2 3 4 5 6 7 8 9 10 11 12 13 14 15 16 17
187
FTUS43 KFSD 241002 AAA
TAFFSD
TAF AMD
KFSD 241002Z 2410/2506 VRB03KT P6SM SKC
     FM241400 15008KT P6SM SKC
     FM242000 15011KT P6SM SKC=

USA.gov is the U.S. government's official web portal to all federal, state and local government web resources and services.